Time;durP1;ratioP1;P1;durP2;ratioP2;P2;SDS_P1;SDS_P2;PMS_P1;PMS_P2;Temp;Humidity;BMP_temperature;BMP_pressure;BME280_temperature;BME280_humidity;BME280_pressure;Samples;Min_cycle;Max_cycle;Signal;HPM_P1;HPM_P2
2022/07/18 00:00:18;;;;;;;10.88;7.15;;;28.60;99.90;;;;;;4162587;28;20061;-64
2022/07/18 00:02:25;;;;;;;24.48;9.93;;;28.70;99.90;;;;;;4162069;28;20049;-62
2022/07/18 00:04:29;;;;;;;15.05;7.70;;;28.70;99.90;;;;;;4158512;28;20081;-63
2022/07/18 00:06:35;;;;;;;15.20;7.43;;;28.70;99.90;;;;;;4153415;28;20061;-63
2022/07/18 00:08:40;;;;;;;16.05;7.22;;;28.80;99.90;;;;;;4160491;28;20063;-63
2022/07/18 00:10:45;;;;;;;12.60;7.20;;;28.80;99.90;;;;;;4161249;28;20049;-63
2022/07/18 00:12:50;;;;;;;10.85;7.00;;;28.80;99.90;;;;;;4160490;28;20420;-63
2022/07/18 00:14:54;;;;;;;11.75;7.10;;;28.90;99.90;;;;;;4159743;28;20465;-63
2022/07/18 00:16:59;;;;;;;12.38;6.50;;;29.00;99.90;;;;;;4161304;28;20084;-64
2022/07/18 00:19:04;;;;;;;12.60;6.88;;;29.00;99.90;;;;;;4160346;28;20053;-63
2022/07/18 00:21:12;;;;;;;8.07;5.97;;;29.10;99.90;;;;;;4161840;28;20049;-63
2022/07/18 00:23:17;;;;;;;18.23;6.95;;;29.10;99.90;;;;;;4161737;28;20069;-63
2022/07/18 00:25:22;;;;;;;12.23;6.75;;;29.10;99.90;;;;;;4161268;28;20144;-64
2022/07/18 00:27:28;;;;;;;12.60;7.18;;;29.10;99.90;;;;;;4161192;28;20051;-64
2022/07/18 00:29:36;;;;;;;10.70;6.30;;;29.20;99.90;;;;;;4160587;28;20395;-64
2022/07/18 00:31:41;;;;;;;11.43;6.25;;;29.30;99.90;;;;;;4161224;28;20052;-63
2022/07/18 00:33:48;;;;;;;10.82;6.18;;;29.30;99.90;;;;;;4143575;28;20093;-64
2022/07/18 00:35:53;;;;;;;9.45;5.90;;;29.40;99.90;;;;;;4160915;28;20512;-64
2022/07/18 00:37:57;;;;;;;11.65;6.13;;;29.40;99.90;;;;;;4160498;28;20045;-64
2022/07/18 00:40:04;;;;;;;13.98;6.35;;;29.40;99.90;;;;;;4161072;28;20048;-64
2022/07/18 00:42:09;;;;;;;8.10;5.47;;;29.40;99.90;;;;;;4161346;28;20068;-64
2022/07/18 00:44:21;;;;;;;9.93;5.45;;;29.50;99.90;;;;;;4161361;28;20459;-64
2022/07/18 00:46:29;;;;;;;11.48;5.93;;;29.60;99.90;;;;;;4161031;28;20080;-64
2022/07/18 00:48:34;;;;;;;12.25;5.80;;;29.70;99.90;;;;;;4161057;28;20122;-64
2022/07/18 00:50:40;;;;;;;12.50;5.72;;;29.70;99.90;;;;;;4161055;28;20430;-64
2022/07/18 00:52:47;;;;;;;8.48;6.05;;;29.80;99.90;;;;;;4158374;28;20053;-64
2022/07/18 00:54:51;;;;;;;16.98;6.03;;;29.80;99.90;;;;;;4160697;28;20088;-63
2022/07/18 00:56:56;;;;;;;12.40;5.80;;;29.90;99.90;;;;;;4160688;28;20316;-64
2022/07/18 00:59:02;;;;;;;10.93;6.10;;;30.00;99.90;;;;;;4160954;28;20511;-64
2022/07/18 01:03:24;;;;;;;13.18;5.60;;;30.10;99.90;;;;;;4158909;28;20132;-63
2022/07/18 01:05:31;;;;;;;7.70;5.30;;;30.10;99.90;;;;;;4150670;28;20057;-63
2022/07/18 01:07:36;;;;;;;9.45;5.40;;;30.10;99.90;;;;;;4157604;28;20399;-63
2022/07/18 01:09:40;;;;;;;9.40;5.30;;;30.10;99.90;;;;;;4159135;28;20050;-64
2022/07/18 01:11:47;;;;;;;7.65;4.80;;;30.20;99.90;;;;;;4159627;28;20186;-61
2022/07/18 01:13:52;;;;;;;6.97;5.20;;;30.10;99.90;;;;;;4160145;28;20049;-63
2022/07/18 01:15:57;;;;;;;11.02;5.43;;;30.20;99.90;;;;;;4174802;28;20440;-62
2022/07/18 01:18:04;;;;;;;8.73;4.93;;;30.20;99.90;;;;;;4173314;28;20048;-63
2022/07/18 01:20:09;;;;;;;8.57;5.00;;;30.20;99.90;;;;;;4160075;28;20049;-63
2022/07/18 01:22:18;;;;;;;7.72;4.80;;;30.30;99.90;;;;;;4159563;28;20052;-63
2022/07/18 01:24:30;;;;;;;9.45;5.25;;;30.40;99.90;;;;;;4155661;28;20053;-63
2022/07/18 01:26:36;;;;;;;8.40;4.95;;;30.40;99.90;;;;;;4160073;28;20478;-63
2022/07/18 01:28:43;;;;;;;11.30;5.55;;;30.50;99.90;;;;;;4160964;28;20049;-63
2022/07/18 01:30:51;;;;;;;9.20;5.03;;;30.60;99.90;;;;;;4153275;28;20044;-63
2022/07/18 01:32:58;;;;;;;7.82;4.80;;;30.60;99.90;;;;;;4158364;28;20046;-63
2022/07/18 01:35:03;;;;;;;7.90;4.65;;;30.70;99.90;;;;;;4158804;28;20076;-64
2022/07/18 01:37:09;;;;;;;7.45;4.95;;;30.80;99.90;;;;;;4133092;28;20112;-63
2022/07/18 01:39:13;;;;;;;8.75;4.47;;;30.90;99.90;;;;;;4159033;28;20076;-63
2022/07/18 01:41:18;;;;;;;7.00;5.00;;;31.00;99.90;;;;;;4160040;28;20373;-63
2022/07/18 01:43:27;;;;;;;8.38;4.88;;;31.00;99.90;;;;;;4158957;28;20421;-63
2022/07/18 01:45:31;;;;;;;7.10;4.97;;;31.00;99.90;;;;;;4160124;28;20440;-64
2022/07/18 01:47:36;;;;;;;7.68;4.47;;;31.10;99.90;;;;;;4159574;28;20053;-63
2022/07/18 01:49:44;;;;;;;9.23;5.35;;;31.10;99.90;;;;;;4125179;28;20065;-64
2022/07/18 01:51:51;;;;;;;8.30;4.88;;;31.20;99.90;;;;;;4160679;28;20140;-64
2022/07/18 01:54:01;;;;;;;7.93;5.32;;;31.30;99.90;;;;;;4161008;28;20169;-62
2022/07/18 01:56:07;;;;;;;7.38;4.50;;;31.30;99.90;;;;;;4160290;28;20092;-63
2022/07/18 01:58:12;;;;;;;8.35;4.93;;;31.30;99.90;;;;;;4161072;28;20084;-63
2022/07/18 02:00:17;;;;;;;8.85;5.05;;;31.30;99.90;;;;;;4160420;28;20061;-63
2022/07/18 02:02:21;;;;;;;8.02;5.35;;;31.30;99.90;;;;;;4158989;28;20081;-62
2022/07/18 02:06:43;;;;;;;8.57;5.13;;;31.40;99.90;;;;;;4160831;28;20049;-64
2022/07/18 02:08:51;;;;;;;7.32;4.82;;;31.50;99.90;;;;;;4160802;28;20459;-63
2022/07/18 02:10:57;;;;;;;9.40;4.70;;;31.60;99.90;;;;;;4160713;28;20038;-63
2022/07/18 02:13:01;;;;;;;7.53;4.75;;;31.70;99.90;;;;;;4160769;28;20092;-63
2022/07/18 02:15:08;;;;;;;5.75;3.92;;;31.70;99.90;;;;;;4159145;28;20045;-63
2022/07/18 02:17:13;;;;;;;6.65;3.92;;;31.80;99.90;;;;;;4160831;28;20041;-63
2022/07/18 02:19:18;;;;;;;6.30;3.90;;;31.80;99.90;;;;;;4160241;28;20049;-63
2022/07/18 02:21:26;;;;;;;7.22;3.95;;;31.90;99.90;;;;;;4160713;28;20412;-63
2022/07/18 02:23:31;;;;;;;8.25;4.30;;;31.90;99.90;;;;;;4160763;28;20038;-63
2022/07/18 02:25:37;;;;;;;7.75;3.90;;;32.00;99.90;;;;;;4160931;28;20099;-63
2022/07/18 02:27:44;;;;;;;6.93;4.22;;;32.00;99.90;;;;;;4160711;28;20041;-63
2022/07/18 02:29:48;;;;;;;6.05;4.20;;;32.00;99.90;;;;;;4159207;28;20060;-64
2022/07/18 02:31:53;;;;;;;4.70;3.50;;;32.10;99.90;;;;;;4160560;28;20073;-63
2022/07/18 02:34:01;;;;;;;6.78;3.80;;;32.00;99.90;;;;;;4159706;28;20129;-65
2022/07/18 02:36:07;;;;;;;6.53;4.03;;;32.10;99.90;;;;;;4158912;28;20076;-62
2022/07/18 02:38:12;;;;;;;5.07;3.50;;;32.20;99.90;;;;;;4160830;28;20285;-63
2022/07/18 02:40:23;;;;;;;8.32;4.25;;;32.30;99.90;;;;;;4160258;28;20080;-62
2022/07/18 02:42:27;;;;;;;6.90;3.35;;;32.30;99.90;;;;;;4161254;28;20133;-62
2022/07/18 02:44:32;;;;;;;6.22;3.70;;;32.30;99.90;;;;;;4163780;28;20053;-62
2022/07/18 02:46:39;;;;;;;6.90;3.40;;;32.30;99.90;;;;;;4128196;28;20054;-62
2022/07/18 02:48:43;;;;;;;6.47;3.85;;;32.20;99.90;;;;;;4163435;28;20446;-63
2022/07/18 02:50:48;;;;;;;8.30;3.83;;;32.00;99.90;;;;;;4163388;28;20124;-63
2022/07/18 02:52:56;;;;;;;5.72;3.30;;;32.10;99.90;;;;;;4163447;28;20071;-63
2022/07/18 02:55:01;;;;;;;6.25;3.58;;;32.30;99.90;;;;;;4163226;28;20049;-63
2022/07/18 02:57:05;;;;;;;5.97;3.60;;;32.20;99.90;;;;;;4163428;28;20511;-63
2022/07/18 02:59:14;;;;;;;5.93;3.50;;;32.10;99.90;;;;;;4128451;28;20225;-63
2022/07/18 03:01:19;;;;;;;7.28;3.83;;;32.10;99.90;;;;;;4163149;28;20059;-63
2022/07/18 03:03:23;;;;;;;6.93;3.40;;;32.10;99.90;;;;;;4162297;28;20046;-62
2022/07/18 03:05:30;;;;;;;5.75;3.08;;;32.30;99.90;;;;;;4150761;28;20049;-63
2022/07/18 03:07:36;;;;;;;9.60;3.40;;;32.30;99.90;;;;;;4160143;28;20041;-62
2022/07/18 03:09:40;;;;;;;6.85;3.75;;;32.60;99.90;;;;;;4161328;28;20132;-62
2022/07/18 03:11:49;;;;;;;8.23;4.40;;;32.60;99.90;;;;;;4161678;28;20049;-64
2022/07/18 03:13:53;;;;;;;5.10;3.53;;;32.50;99.50;;;;;;4160642;28;20061;-62
2022/07/18 03:15:58;;;;;;;8.52;3.17;;;32.50;99.20;;;;;;4160889;28;20050;-62
2022/07/18 03:18:05;;;;;;;7.25;3.38;;;32.50;98.80;;;;;;4161853;28;20049;-61
2022/07/18 03:20:13;;;;;;;4.38;3.10;;;32.60;99.20;;;;;;4160556;28;20084;-62
2022/07/18 03:22:19;;;;;;;6.90;3.40;;;32.80;99.10;;;;;;4161433;28;20046;-63
2022/07/18 03:24:28;;;;;;;5.45;3.35;;;32.80;99.10;;;;;;4142667;28;20153;-62
2022/07/18 03:26:35;;;;;;;4.32;3.20;;;32.90;98.60;;;;;;4161220;28;20049;-62
2022/07/18 03:28:40;;;;;;;6.35;3.20;;;32.60;98.70;;;;;;4145487;28;20053;-63
2022/07/18 03:30:49;;;;;;;5.97;3.08;;;32.70;99.00;;;;;;4144000;28;20088;-63
2022/07/18 03:32:53;;;;;;;11.27;3.47;;;32.60;98.70;;;;;;4145670;28;20084;-62
2022/07/18 03:34:58;;;;;;;5.60;3.15;;;32.50;98.50;;;;;;4145459;28;20463;-62
2022/07/18 03:37:06;;;;;;;4.03;3.13;;;32.50;98.60;;;;;;4145752;28;20056;-63
2022/07/18 03:39:12;;;;;;;5.75;2.83;;;32.60;99.00;;;;;;4145835;28;20072;-63
2022/07/18 03:41:16;;;;;;;6.43;3.22;;;32.60;98.60;;;;;;4143828;28;20041;-63
2022/07/18 03:43:21;;;;;;;4.28;3.10;;;32.60;98.70;;;;;;4155768;28;20147;-64
2022/07/18 03:45:25;;;;;;;5.20;2.90;;;32.60;98.30;;;;;;4145171;28;20580;-62
2022/07/18 03:47:30;;;;;;;4.60;2.80;;;32.70;98.70;;;;;;4146315;28;20058;-62
2022/07/18 03:49:39;;;;;;;5.13;3.00;;;32.80;98.50;;;;;;4159737;28;20049;-63
2022/07/18 03:51:44;;;;;;;4.10;2.80;;;32.70;98.50;;;;;;4161666;28;20042;-63
2022/07/18 03:53:48;;;;;;;7.32;3.13;;;32.70;98.80;;;;;;4161090;28;20109;-62
2022/07/18 03:55:58;;;;;;;7.60;3.17;;;32.80;98.70;;;;;;4126631;28;20124;-62
2022/07/18 03:58:02;;;;;;;6.88;3.08;;;32.70;98.20;;;;;;4161326;28;20064;-62
2022/07/18 04:00:16;;;;;;;5.00;2.70;;;32.70;98.30;;;;;;4161088;28;20053;-61
2022/07/18 04:02:22;;;;;;;7.85;2.35;;;32.70;98.10;;;;;;4161779;28;20111;-62
2022/07/18 04:04:27;;;;;;;5.05;2.72;;;32.80;98.10;;;;;;4161463;28;20061;-63
2022/07/18 04:06:31;;;;;;;3.58;2.60;;;32.90;97.90;;;;;;4161236;28;20501;-62
2022/07/18 04:08:40;;;;;;;7.05;2.80;;;33.10;98.10;;;;;;4161342;28;20104;-63
2022/07/18 04:10:49;;;;;;;5.90;2.75;;;33.30;97.90;;;;;;4161307;28;20447;-61
2022/07/18 04:12:54;;;;;;;6.75;3.00;;;33.40;97.50;;;;;;4160300;28;20045;-61
2022/07/18 04:15:02;;;;;;;5.07;2.63;;;33.40;97.70;;;;;;4160776;28;20228;-62
2022/07/18 04:17:07;;;;;;;4.75;3.03;;;33.40;98.00;;;;;;4161441;28;20053;-62
2022/07/18 04:19:16;;;;;;;3.78;3.20;;;33.40;98.40;;;;;;4161408;28;20040;-61
2022/07/18 04:21:23;;;;;;;8.27;3.35;;;33.40;98.30;;;;;;4160984;28;20404;-62
2022/07/18 04:23:27;;;;;;;4.97;2.80;;;33.40;98.50;;;;;;4160899;28;20077;-61
2022/07/18 04:25:36;;;;;;;5.53;3.13;;;33.30;98.80;;;;;;4148236;28;20088;-62
2022/07/18 04:27:46;;;;;;;8.80;2.92;;;33.50;98.70;;;;;;4153553;28;20452;-62
2022/07/18 04:29:50;;;;;;;5.15;3.10;;;33.30;97.30;;;;;;4160933;28;20057;-62
2022/07/18 04:31:55;;;;;;;5.10;2.42;;;33.00;98.20;;;;;;4160675;28;20056;-63
2022/07/18 04:34:01;;;;;;;5.13;3.20;;;33.20;97.80;;;;;;4160987;28;20051;-62
2022/07/18 04:36:06;;;;;;;4.10;2.20;;;33.30;97.80;;;;;;4160415;28;20040;-62
2022/07/18 04:38:11;;;;;;;3.45;2.60;;;33.10;97.90;;;;;;4161012;28;20076;-63
2022/07/18 04:40:17;;;;;;;3.72;2.65;;;33.30;97.20;;;;;;4141603;28;20057;-62
2022/07/18 04:42:21;;;;;;;3.70;2.42;;;33.30;97.60;;;;;;4159780;28;20420;-63
2022/07/18 04:44:26;;;;;;;5.90;2.80;;;33.50;97.20;;;;;;4161122;28;20045;-62
2022/07/18 04:46:32;;;;;;;3.88;2.78;;;33.80;97.00;;;;;;4159356;28;20052;-62
2022/07/18 04:48:38;;;;;;;4.30;2.60;;;34.10;97.00;;;;;;4160866;28;20099;-62
2022/07/18 04:50:42;;;;;;;3.30;2.20;;;34.20;96.30;;;;;;4157130;28;20041;-62
2022/07/18 04:52:51;;;;;;;4.20;2.33;;;34.00;95.60;;;;;;4155251;28;21999;-62
2022/07/18 04:54:57;;;;;;;4.57;2.20;;;34.20;95.50;;;;;;4165465;28;20391;-62
2022/07/18 04:57:02;;;;;;;2.97;2.10;;;33.90;95.50;;;;;;4138096;28;20904;-62
2022/07/18 04:59:11;;;;;;;3.47;2.33;;;34.00;95.50;;;;;;4137703;28;20052;-62
2022/07/18 05:01:15;;;;;;;4.05;2.58;;;33.90;95.70;;;;;;4153973;28;22047;-62
2022/07/18 05:03:20;;;;;;;2.88;2.03;;;34.20;96.00;;;;;;4155945;28;20076;-62
2022/07/18 05:05:27;;;;;;;3.38;2.35;;;34.40;95.40;;;;;;4168266;28;20075;-62
2022/07/18 05:07:39;;;;;;;6.00;2.78;;;34.50;95.50;;;;;;4172688;28;20526;-62
2022/07/18 05:09:44;;;;;;;4.68;2.60;;;34.40;95.50;;;;;;4172523;28;20397;-63
2022/07/18 05:11:52;;;;;;;3.38;2.65;;;34.20;95.90;;;;;;4173697;28;20048;-62
2022/07/18 05:13:58;;;;;;;5.50;3.10;;;34.00;96.00;;;;;;4145689;28;20037;-62
2022/07/18 05:16:03;;;;;;;4.07;2.75;;;33.90;95.70;;;;;;4149918;28;20110;-63
2022/07/18 05:18:10;;;;;;;4.50;2.50;;;33.90;95.70;;;;;;4186815;28;20044;-63
2022/07/18 05:20:18;;;;;;;3.47;2.50;;;34.00;95.50;;;;;;4155554;28;20099;-62
2022/07/18 05:22:23;;;;;;;7.95;2.67;;;33.90;95.50;;;;;;4155726;28;20037;-63
2022/07/18 05:24:29;;;;;;;6.70;2.70;;;34.10;95.50;;;;;;4153751;28;20071;-62
2022/07/18 05:26:34;;;;;;;4.93;2.63;;;34.20;95.40;;;;;;4154476;28;20049;-62
2022/07/18 05:28:41;;;;;;;4.70;2.65;;;34.40;96.00;;;;;;4165944;28;20075;-61
2022/07/18 05:30:46;;;;;;;4.07;2.20;;;34.80;95.10;;;;;;4172096;28;20076;-62
2022/07/18 05:32:52;;;;;;;2.78;2.20;;;34.80;94.90;;;;;;4170691;28;20045;-62
2022/07/18 05:34:56;;;;;;;4.68;2.17;;;34.80;95.10;;;;;;4163249;28;20091;-62
2022/07/18 05:37:03;;;;;;;2.95;2.00;;;34.80;95.20;;;;;;4153162;28;20053;-62
2022/07/18 05:39:09;;;;;;;5.55;2.10;;;34.60;95.00;;;;;;4153562;28;20041;-62
2022/07/18 05:41:14;;;;;;;5.22;2.42;;;34.00;95.20;;;;;;4154280;28;20084;-62
2022/07/18 05:43:20;;;;;;;2.83;2.20;;;33.80;96.00;;;;;;4153749;28;20115;-62
2022/07/18 05:45:25;;;;;;;7.00;2.30;;;33.80;96.20;;;;;;4154281;28;20083;-62
2022/07/18 05:47:30;;;;;;;7.20;2.40;;;33.70;95.50;;;;;;4167277;28;20321;-62
2022/07/18 05:49:34;;;;;;;4.07;2.35;;;33.60;95.40;;;;;;4171511;28;20075;-63
2022/07/18 05:51:39;;;;;;;5.40;2.38;;;33.70;95.30;;;;;;4171777;28;20045;-62
2022/07/18 05:53:44;;;;;;;3.03;2.10;;;33.70;95.10;;;;;;4172161;28;20404;-62
2022/07/18 05:55:51;;;;;;;3.97;1.95;;;33.70;95.00;;;;;;4171982;28;20049;-62
2022/07/18 05:57:55;;;;;;;5.30;2.40;;;33.60;95.10;;;;;;4161514;28;20053;-62
2022/07/18 06:00:00;;;;;;;3.58;2.35;;;33.70;95.30;;;;;;4152373;28;20408;-62
2022/07/18 06:02:10;;;;;;;3.38;2.30;;;33.90;95.70;;;;;;4153948;28;20144;-62
2022/07/18 06:04:15;;;;;;;3.65;2.20;;;33.90;95.10;;;;;;4155010;28;20500;-62
2022/07/18 06:06:20;;;;;;;4.65;2.30;;;33.80;94.80;;;;;;4152413;28;20053;-62
2022/07/18 06:08:27;;;;;;;5.68;2.30;;;33.90;94.80;;;;;;4141336;28;20057;-61
2022/07/18 06:10:31;;;;;;;4.88;2.40;;;33.90;94.60;;;;;;4159819;28;20504;-62
2022/07/18 06:12:36;;;;;;;4.75;2.25;;;33.90;94.80;;;;;;4160191;28;20410;-62
2022/07/18 06:14:42;;;;;;;4.10;2.38;;;34.00;94.90;;;;;;4153070;28;20452;-61
2022/07/18 06:16:47;;;;;;;3.92;2.47;;;34.30;94.70;;;;;;4148241;28;20045;-62
2022/07/18 06:18:51;;;;;;;3.83;2.33;;;34.60;94.80;;;;;;4148021;28;20056;-62
2022/07/18 06:20:58;;;;;;;5.22;3.05;;;34.60;94.20;;;;;;4160755;28;20045;-61
2022/07/18 06:23:02;;;;;;;3.45;2.50;;;34.40;95.40;;;;;;4142901;28;20094;-60
2022/07/18 06:25:07;;;;;;;4.03;2.47;;;34.40;95.10;;;;;;4152237;28;20322;-61
2022/07/18 06:27:12;;;;;;;6.22;3.00;;;34.70;95.20;;;;;;4156655;28;20615;-62
2022/07/18 06:29:18;;;;;;;6.97;2.88;;;34.60;95.20;;;;;;4166549;28;20064;-62
2022/07/18 06:31:23;;;;;;;3.88;2.60;;;34.50;95.20;;;;;;4163669;28;20049;-62
2022/07/18 06:33:30;;;;;;;5.20;2.60;;;34.40;95.60;;;;;;4157988;28;20044;-63
2022/07/18 06:35:35;;;;;;;4.93;2.60;;;34.40;95.80;;;;;;4158525;28;20807;-61
2022/07/18 06:37:52;;;;;;;5.85;2.92;;;34.40;95.70;;;;;;4158502;28;20050;-62
2022/07/18 06:39:59;;;;;;;5.57;3.42;;;34.40;96.40;;;;;;4157880;28;20046;-61
2022/07/18 06:42:06;;;;;;;6.38;3.28;;;34.30;96.60;;;;;;4158752;28;20128;-61
2022/07/18 06:44:11;;;;;;;6.63;3.50;;;34.30;96.70;;;;;;4158307;28;20072;-61
2022/07/18 06:46:15;;;;;;;6.00;3.13;;;34.20;97.00;;;;;;4156543;28;20107;-62
2022/07/18 06:48:20;;;;;;;6.07;3.10;;;34.10;97.10;;;;;;4157570;28;20322;-62
2022/07/18 06:50:25;;;;;;;5.35;3.17;;;34.10;97.10;;;;;;4162708;28;20523;-62
2022/07/18 06:52:29;;;;;;;6.00;3.40;;;34.00;97.50;;;;;;4162173;28;20049;-62
2022/07/18 06:54:36;;;;;;;7.82;3.97;;;33.90;98.10;;;;;;4162444;28;20049;-64
2022/07/18 06:56:40;;;;;;;4.88;3.50;;;33.90;98.10;;;;;;4162651;28;20045;-61
2022/07/18 06:58:50;;;;;;;6.05;3.42;;;33.90;98.00;;;;;;4162378;28;20148;-62
2022/07/18 07:00:55;;;;;;;5.28;3.10;;;34.00;97.90;;;;;;4144484;28;20535;-62
2022/07/18 07:02:59;;;;;;;10.38;3.45;;;34.10;97.80;;;;;;4158003;28;20054;-62
2022/07/18 07:05:17;;;;;;;5.88;3.50;;;34.00;97.80;;;;;;4157112;28;20513;-62
2022/07/18 07:07:22;;;;;;;5.93;3.00;;;34.10;98.10;;;;;;4152698;28;20049;-62
2022/07/18 07:09:26;;;;;;;5.70;3.63;;;34.00;98.00;;;;;;4141906;28;20088;-62
2022/07/18 07:11:35;;;;;;;6.38;3.60;;;33.90;98.00;;;;;;4148223;28;20048;-62
2022/07/18 07:13:46;;;;;;;7.07;3.58;;;33.80;98.20;;;;;;4141529;28;20053;-61
2022/07/18 07:15:52;;;;;;;5.65;3.50;;;33.70;98.40;;;;;;4140256;28;20038;-61
2022/07/18 07:18:00;;;;;;;6.32;3.67;;;33.80;98.50;;;;;;4141747;28;20533;-61
2022/07/18 07:20:06;;;;;;;3.33;2.90;;;33.80;98.70;;;;;;4153246;28;20044;-62
2022/07/18 07:22:11;;;;;;;9.25;3.58;;;33.80;98.70;;;;;;4156961;28;20107;-62
2022/07/18 07:24:19;;;;;;;12.52;3.80;;;33.80;98.50;;;;;;4157725;28;20041;-61
2022/07/18 07:26:24;;;;;;;5.30;3.53;;;33.60;98.80;;;;;;4158034;28;20459;-62
2022/07/18 07:28:28;;;;;;;5.60;3.22;;;33.50;98.80;;;;;;4147483;28;20045;-62
2022/07/18 07:30:33;;;;;;;4.88;3.58;;;33.60;99.10;;;;;;4156445;28;20049;-61
2022/07/18 07:32:41;;;;;;;5.10;3.22;;;33.80;98.80;;;;;;4157546;28;20045;-61
2022/07/18 07:34:46;;;;;;;6.20;3.50;;;33.80;98.80;;;;;;4155688;28;20587;-62
2022/07/18 07:36:52;;;;;;;8.57;3.90;;;33.70;98.90;;;;;;4156604;28;20071;-63
2022/07/18 07:38:57;;;;;;;5.20;3.10;;;33.70;99.10;;;;;;4157523;28;20055;-62
2022/07/18 07:41:02;;;;;;;9.10;3.50;;;33.70;99.00;;;;;;4156387;28;20080;-62
2022/07/18 07:43:08;;;;;;;4.72;2.70;;;33.70;99.10;;;;;;4155545;28;20503;-62
2022/07/18 07:45:13;;;;;;;7.88;3.90;;;33.70;99.20;;;;;;4154319;28;20576;-61
2022/07/18 07:47:18;;;;;;;6.03;3.30;;;33.60;99.40;;;;;;4154201;28;20048;-61
2022/07/18 07:49:24;;;;;;;8.77;3.80;;;33.60;99.50;;;;;;4156744;28;20087;-61
2022/07/18 07:51:29;;;;;;;5.45;2.90;;;33.50;99.50;;;;;;4154318;28;20043;-62
2022/07/18 07:53:37;;;;;;;5.60;3.50;;;33.50;99.80;;;;;;4157035;28;20132;-62
2022/07/18 07:55:46;;;;;;;5.22;3.20;;;33.40;99.90;;;;;;4157530;28;20381;-62
2022/07/18 07:57:51;;;;;;;7.10;3.50;;;33.40;99.90;;;;;;4157000;28;20054;-62
2022/07/18 07:59:55;;;;;;;5.85;3.40;;;33.50;99.80;;;;;;4140694;28;20080;-62
2022/07/18 08:02:04;;;;;;;6.63;3.30;;;33.50;99.70;;;;;;4173597;28;20419;-61
2022/07/18 08:04:09;;;;;;;5.70;3.58;;;33.40;99.20;;;;;;4170040;28;20053;-61
2022/07/18 08:06:13;;;;;;;6.18;3.22;;;33.30;98.90;;;;;;4164524;28;20059;-61
2022/07/18 08:08:20;;;;;;;4.63;3.00;;;33.40;98.90;;;;;;4171218;28;20129;-61
2022/07/18 08:10:25;;;;;;;8.20;3.15;;;33.60;98.30;;;;;;4170043;28;20381;-61
2022/07/18 08:12:29;;;;;;;5.32;2.50;;;33.70;97.90;;;;;;4156014;28;20084;-61
2022/07/18 08:14:40;;;;;;;3.75;2.47;;;33.90;97.70;;;;;;4165484;28;20451;-62
2022/07/18 08:16:44;;;;;;;4.47;2.47;;;33.80;97.90;;;;;;4159964;28;20276;-62
2022/07/18 08:18:48;;;;;;;3.97;2.45;;;33.70;97.90;;;;;;4160467;28;20052;-62
2022/07/18 08:20:56;;;;;;;6.05;2.60;;;33.60;98.00;;;;;;4161359;28;20045;-62
2022/07/18 08:23:03;;;;;;;5.20;2.08;;;33.40;98.20;;;;;;4177284;28;20139;-62
2022/07/18 08:25:09;;;;;;;3.00;2.00;;;33.20;98.40;;;;;;4176185;28;20045;-62
2022/07/18 08:27:16;;;;;;;3.97;2.30;;;33.10;98.80;;;;;;4167174;28;20140;-62
2022/07/18 08:29:20;;;;;;;5.93;2.50;;;33.10;98.90;;;;;;4161170;28;20053;-62
2022/07/18 08:31:45;;;;;;;3.80;2.20;;;33.00;99.10;;;;;;4160873;28;20697;-62
2022/07/18 08:33:52;;;;;;;5.80;3.03;;;32.90;99.30;;;;;;4160643;28;20124;-63
2022/07/18 08:35:57;;;;;;;3.97;2.63;;;32.80;99.50;;;;;;4160925;28;20045;-62
2022/07/18 08:38:02;;;;;;;4.68;2.90;;;32.70;99.60;;;;;;4161328;28;20045;-62
2022/07/18 08:40:09;;;;;;;5.80;2.42;;;32.70;99.80;;;;;;4141603;28;20148;-62
2022/07/18 08:42:13;;;;;;;6.20;2.85;;;32.60;99.90;;;;;;4157738;28;20412;-62
2022/07/18 08:44:18;;;;;;;6.13;3.10;;;32.60;99.90;;;;;;4160406;28;20091;-62
2022/07/18 08:46:27;;;;;;;4.75;3.22;;;32.50;99.90;;;;;;4109886;28;20509;-62
2022/07/18 08:48:32;;;;;;;6.32;3.15;;;32.30;99.90;;;;;;4144725;28;20680;-62
2022/07/18 08:50:36;;;;;;;10.15;3.97;;;32.00;99.90;;;;;;4143879;28;20049;-62
2022/07/18 08:52:43;;;;;;;10.65;3.92;;;31.80;99.90;;;;;;4153544;28;20049;-63
2022/07/18 08:54:57;;;;;;;13.45;6.47;;;31.80;99.90;;;;;;4161115;28;20057;-62
2022/07/18 08:57:02;;;;;;;27.20;12.80;;;31.70;99.90;;;;;;4160710;28;20045;-63
2022/07/18 08:59:09;;;;;;;26.80;13.82;;;31.60;99.90;;;;;;4160784;28;20404;-62
2022/07/18 09:01:14;;;;;;;23.95;13.35;;;31.60;99.90;;;;;;4160382;28;20045;-62
2022/07/18 09:03:18;;;;;;;50.63;15.60;;;31.50;99.90;;;;;;4171468;28;20071;-62
2022/07/18 09:05:23;;;;;;;18.88;8.57;;;31.50;99.90;;;;;;4160391;28;20467;-61
2022/07/18 09:07:37;;;;;;;21.92;13.52;;;31.50;99.90;;;;;;4166829;28;20038;-62
2022/07/18 09:09:41;;;;;;;28.90;16.40;;;31.50;99.90;;;;;;4156092;28;20060;-61
2022/07/18 09:12:08;;;;;;;23.30;14.23;;;31.30;99.90;;;;;;4149400;28;20494;-62
2022/07/18 09:14:38;;;;;;;18.25;10.95;;;31.20;99.90;;;;;;4152297;28;20712;-63
2022/07/18 09:16:44;;;;;;;11.13;6.95;;;31.10;99.90;;;;;;4154554;28;20899;-63
2022/07/18 09:19:06;;;;;;;11.93;6.32;;;31.00;99.90;;;;;;4145158;28;20037;-62
2022/07/18 09:21:19;;;;;;;7.78;4.60;;;31.10;99.90;;;;;;4151996;28;20054;-62
2022/07/18 09:23:27;;;;;;;6.38;3.30;;;31.00;99.90;;;;;;4152608;28;20515;-63
2022/07/18 09:25:33;;;;;;;13.07;7.45;;;31.10;99.90;;;;;;4154695;28;20481;-63
2022/07/18 09:27:45;;;;;;;8.18;4.50;;;31.00;99.90;;;;;;4156221;28;20073;-63
2022/07/18 09:30:03;;;;;;;8.10;3.57;;;31.10;99.90;;;;;;4155514;28;20105;-63
2022/07/18 09:32:10;;;;;;;6.00;3.45;;;31.10;99.90;;;;;;4178037;28;20899;-63
2022/07/18 09:34:15;;;;;;;6.90;2.78;;;31.00;99.90;;;;;;4155368;28;20153;-63
2022/07/18 09:36:20;;;;;;;4.22;2.70;;;31.10;99.90;;;;;;4154659;28;20163;-63
2022/07/18 09:38:30;;;;;;;3.58;2.38;;;31.10;99.90;;;;;;4155550;28;20053;-62
2022/07/18 09:40:37;;;;;;;5.60;2.55;;;31.10;99.90;;;;;;4154859;28;20443;-63
2022/07/18 09:42:41;;;;;;;7.13;2.83;;;30.90;99.90;;;;;;4152865;28;20049;-63
2022/07/18 09:44:59;;;;;;;6.13;2.80;;;30.80;99.90;;;;;;4155254;28;20052;-62
2022/07/18 09:47:04;;;;;;;5.47;2.92;;;30.80;99.90;;;;;;4155514;28;20115;-62
2022/07/18 09:49:09;;;;;;;8.52;3.28;;;30.80;99.90;;;;;;4155509;28;20049;-62
2022/07/18 09:51:17;;;;;;;10.13;3.38;;;30.90;99.90;;;;;;4155033;28;20056;-62
2022/07/18 09:53:24;;;;;;;6.53;3.85;;;31.00;99.90;;;;;;4151049;28;20295;-63
2022/07/18 09:55:49;;;;;;;6.82;3.40;;;31.20;99.90;;;;;;4156674;28;20563;-61
2022/07/18 09:58:04;;;;;;;5.47;3.70;;;31.40;99.90;;;;;;4154909;28;20124;-61
2022/07/18 10:00:09;;;;;;;5.38;3.20;;;31.60;99.90;;;;;;4154973;28;20050;-62
2022/07/18 10:02:20;;;;;;;5.05;2.90;;;31.90;99.90;;;;;;4157659;28;20337;-61
2022/07/18 10:04:32;;;;;;;6.43;3.10;;;32.00;99.90;;;;;;4157984;28;20307;-61
2022/07/18 10:06:38;;;;;;;10.02;3.38;;;32.00;99.90;;;;;;4156286;28;20431;-63
2022/07/18 10:08:43;;;;;;;6.97;3.35;;;32.00;99.90;;;;;;4155896;28;20071;-62
2022/07/18 10:10:49;;;;;;;6.93;3.38;;;32.10;99.90;;;;;;4158223;28;20046;-62
2022/07/18 10:12:58;;;;;;;5.50;2.95;;;32.10;99.90;;;;;;4152977;28;20049;-61
2022/07/18 10:15:04;;;;;;;9.63;4.32;;;32.20;99.90;;;;;;4158148;28;20041;-61
2022/07/18 10:17:13;;;;;;;8.20;3.60;;;32.30;99.90;;;;;;4154375;28;20045;-61
2022/07/18 10:19:18;;;;;;;5.63;3.15;;;32.20;99.90;;;;;;4156948;28;20523;-63
2022/07/18 10:21:41;;;;;;;7.50;3.35;;;32.20;99.90;;;;;;4180633;28;20041;-62
2022/07/18 10:23:47;;;;;;;9.50;3.45;;;32.10;99.90;;;;;;4156387;28;20045;-62
2022/07/18 10:26:24;;;;;;;6.57;3.08;;;32.10;99.90;;;;;;4181147;28;20713;-62
2022/07/18 10:28:28;;;;;;;7.55;3.10;;;32.20;99.90;;;;;;4155066;28;20124;-62
2022/07/18 10:30:49;;;;;;;6.65;3.45;;;32.20;99.90;;;;;;4116427;28;20059;-62
2022/07/18 10:32:55;;;;;;;7.28;3.03;;;32.30;99.90;;;;;;4157713;28;20536;-61
2022/07/18 10:35:00;;;;;;;6.03;3.15;;;32.30;99.90;;;;;;4156189;28;20406;-62
2022/07/18 10:37:08;;;;;;;7.45;3.60;;;32.30;99.90;;;;;;4156309;28;20085;-62
2022/07/18 10:39:24;;;;;;;6.00;2.97;;;32.20;99.90;;;;;;4156787;28;20270;-63
2022/07/18 10:41:29;;;;;;;5.65;3.10;;;32.30;99.90;;;;;;4157009;28;20038;-63
2022/07/18 10:43:44;;;;;;;5.50;3.30;;;32.10;99.90;;;;;;4155743;28;20372;-62
2022/07/18 10:45:48;;;;;;;7.97;3.15;;;32.10;99.90;;;;;;4155488;28;20400;-62
2022/07/18 10:47:53;;;;;;;4.18;2.90;;;32.00;99.90;;;;;;4155863;28;20045;-62
2022/07/18 10:50:05;;;;;;;8.82;3.20;;;32.10;99.90;;;;;;4154062;28;20476;-62
2022/07/18 10:52:39;;;;;;;9.05;3.63;;;32.00;99.90;;;;;;4139017;28;20500;-62
2022/07/18 10:54:57;;;;;;;9.60;3.40;;;32.10;99.90;;;;;;4171065;28;20057;-62
2022/07/18 10:57:06;;;;;;;6.38;3.60;;;32.10;99.90;;;;;;4136803;28;20124;-61
2022/07/18 10:59:19;;;;;;;9.10;3.70;;;32.10;99.90;;;;;;4154464;28;20428;-61
2022/07/18 11:01:24;;;;;;;7.65;3.78;;;32.00;99.90;;;;;;4152662;28;20157;-61
2022/07/18 11:03:32;;;;;;;4.40;3.05;;;32.00;99.90;;;;;;4156933;28;20049;-62